Time;durP1;ratioP1;P1;durP2;ratioP2;P2;SDS_P1;SDS_P2;PMS_P1;PMS_P2;Temp;Humidity;BMP_temperature;BMP_pressure;BME280_temperature;BME280_humidity;BME280_pressure;Samples;Min_cycle;Max_cycle;Signal;HPM_P1;HPM_P2
2024/03/27 00:00:07;;;;;;;4.50;2.47;;;11.30;99.20;;;;;;5013411;28;20089;-80
2024/03/27 00:02:34;;;;;;;6.78;3.40;;;11.30;98.90;;;;;;5001864;28;20035;-80
2024/03/27 00:05:00;;;;;;;9.15;2.47;;;11.40;98.80;;;;;;5002174;28;20041;-81
2024/03/27 00:07:26;;;;;;;8.95;3.20;;;11.40;98.80;;;;;;5000091;28;20030;-80
2024/03/27 00:09:52;;;;;;;8.15;3.45;;;11.40;98.80;;;;;;5011565;28;20038;-80
2024/03/27 00:12:18;;;;;;;4.65;1.98;;;11.30;99.10;;;;;;5013095;28;20023;-80
2024/03/27 00:14:43;;;;;;;6.45;2.75;;;11.20;99.40;;;;;;4997477;28;20026;-80
2024/03/27 00:17:09;;;;;;;7.72;3.15;;;11.20;99.40;;;;;;4988054;28;20035;-81
2024/03/27 00:19:35;;;;;;;8.90;2.63;;;11.20;99.50;;;;;;5012674;28;20034;-80
2024/03/27 00:22:02;;;;;;;8.63;2.67;;;11.20;99.60;;;;;;5012396;28;20045;-81
2024/03/27 00:24:31;;;;;;;5.93;2.80;;;11.10;99.90;;;;;;4987328;28;20030;-80
2024/03/27 00:26:57;;;;;;;7.85;2.22;;;11.20;99.90;;;;;;4979844;28;20038;-80
2024/03/27 00:29:23;;;;;;;5.95;3.03;;;11.20;99.90;;;;;;5001272;28;20069;-80
2024/03/27 00:31:51;;;;;;;8.98;3.20;;;11.20;99.90;;;;;;4995571;28;20026;-79
2024/03/27 00:34:17;;;;;;;4.75;2.40;;;11.30;99.90;;;;;;5022430;28;20042;-79
2024/03/27 00:36:43;;;;;;;7.72;2.90;;;11.30;99.90;;;;;;5018006;28;20033;-80
2024/03/27 00:39:09;;;;;;;11.60;3.20;;;11.40;99.90;;;;;;5034603;28;20030;-80
2024/03/27 00:41:35;;;;;;;11.13;2.83;;;11.50;99.90;;;;;;5017515;28;20078;-80
2024/03/27 00:44:01;;;;;;;6.60;2.33;;;11.60;99.90;;;;;;5013042;28;20045;-80
2024/03/27 00:46:26;;;;;;;4.95;2.08;;;11.50;99.90;;;;;;4997543;28;20031;-80
2024/03/27 00:48:52;;;;;;;4.72;2.40;;;11.50;99.90;;;;;;4996045;28;20026;-80
2024/03/27 00:51:18;;;;;;;6.72;2.80;;;11.50;99.90;;;;;;4989968;28;20034;-80
2024/03/27 00:53:43;;;;;;;6.93;2.25;;;11.30;99.90;;;;;;5003096;28;20037;-81
2024/03/27 00:56:10;;;;;;;5.88;1.90;;;11.30;99.90;;;;;;4987363;28;20038;-81
2024/03/27 00:58:36;;;;;;;4.00;2.33;;;11.20;99.90;;;;;;4979687;28;20027;-80
2024/03/27 01:01:02;;;;;;;3.50;2.03;;;11.10;99.90;;;;;;4986615;28;20415;-78
2024/03/27 01:03:29;;;;;;;4.22;2.25;;;11.10;99.90;;;;;;5007580;28;20030;-80
2024/03/27 01:05:55;;;;;;;3.95;2.08;;;11.10;99.90;;;;;;4993674;28;20048;-80
2024/03/27 01:08:21;;;;;;;4.65;1.85;;;11.00;99.90;;;;;;5004224;28;20113;-78
2024/03/27 01:10:50;;;;;;;3.35;1.67;;;10.80;99.90;;;;;;4998979;28;20026;-80
2024/03/27 01:13:17;;;;;;;4.75;1.98;;;10.80;99.90;;;;;;5007192;28;20538;-80
2024/03/27 01:15:50;;;;;;;6.22;2.35;;;10.70;99.90;;;;;;4999446;28;20022;-82
2024/03/27 01:18:16;;;;;;;3.90;1.98;;;10.70;99.90;;;;;;4981240;28;20065;-80
2024/03/27 01:20:43;;;;;;;5.82;1.88;;;10.70;99.90;;;;;;5005442;28;20069;-80
2024/03/27 01:23:09;;;;;;;5.15;2.00;;;10.70;99.90;;;;;;4979742;28;20399;-80
2024/03/27 01:25:37;;;;;;;3.28;2.10;;;10.70;99.90;;;;;;5002798;28;20058;-80
2024/03/27 01:28:07;;;;;;;4.80;1.95;;;10.60;99.90;;;;;;4981010;28;20045;-81
2024/03/27 01:30:33;;;;;;;6.30;2.05;;;10.50;99.90;;;;;;4997298;28;20030;-80
2024/03/27 01:32:58;;;;;;;3.50;2.33;;;10.30;99.90;;;;;;5001641;28;20056;-80
2024/03/27 01:35:26;;;;;;;3.42;1.60;;;10.20;99.90;;;;;;5010738;28;20026;-80
2024/03/27 01:37:53;;;;;;;5.35;1.83;;;10.20;99.90;;;;;;5025677;28;20026;-81
2024/03/27 01:40:19;;;;;;;5.22;2.00;;;10.20;99.90;;;;;;4996968;28;20034;-80
2024/03/27 01:42:45;;;;;;;3.15;1.50;;;10.20;99.90;;;;;;5007052;28;20030;-81
2024/03/27 01:45:14;;;;;;;5.85;1.65;;;10.20;99.90;;;;;;5004639;28;20049;-81
2024/03/27 01:47:43;;;;;;;9.40;2.13;;;10.10;99.90;;;;;;5001566;28;20491;-81
2024/03/27 01:50:12;;;;;;;5.60;2.20;;;10.10;99.90;;;;;;5012025;28;20034;-81
2024/03/27 01:52:40;;;;;;;3.75;1.63;;;10.10;99.90;;;;;;5007710;28;20356;-78
2024/03/27 01:55:08;;;;;;;4.97;1.70;;;10.00;99.90;;;;;;5011039;28;20089;-79
2024/03/27 01:57:38;;;;;;;3.38;1.65;;;10.00;99.90;;;;;;5007968;28;20041;-80
2024/03/27 02:00:05;;;;;;;4.60;2.00;;;9.90;99.90;;;;;;5022838;28;20037;-80
2024/03/27 02:02:35;;;;;;;8.18;1.88;;;9.80;99.90;;;;;;4987088;28;20503;-79
2024/03/27 02:05:01;;;;;;;8.35;2.33;;;9.80;99.90;;;;;;5011789;28;20033;-80
2024/03/27 02:07:27;;;;;;;4.72;1.75;;;9.60;99.90;;;;;;4992743;28;20038;-80
2024/03/27 02:09:53;;;;;;;5.60;2.45;;;9.50;99.90;;;;;;4996054;28;20041;-80
2024/03/27 02:12:19;;;;;;;4.22;2.47;;;9.50;99.90;;;;;;4994741;28;20666;-80
2024/03/27 02:14:46;;;;;;;6.38;1.85;;;9.20;99.90;;;;;;5000467;28;20034;-80
2024/03/27 02:17:11;;;;;;;4.25;2.35;;;9.30;99.90;;;;;;4977966;28;20035;-80
2024/03/27 02:19:37;;;;;;;6.53;2.08;;;9.20;99.90;;;;;;4988582;28;20052;-79
2024/03/27 02:22:03;;;;;;;3.92;2.00;;;8.90;99.90;;;;;;4996706;28;20034;-80
2024/03/27 02:24:37;;;;;;;4.60;2.30;;;8.90;99.90;;;;;;5007825;28;20475;-80
2024/03/27 02:27:04;;;;;;;5.30;1.90;;;8.90;99.90;;;;;;4999335;28;20037;-80
2024/03/27 02:29:30;;;;;;;4.30;2.20;;;8.80;99.90;;;;;;5012014;28;20133;-80
2024/03/27 02:31:55;;;;;;;4.95;3.40;;;8.60;99.90;;;;;;5002899;28;20400;-80
2024/03/27 02:34:21;;;;;;;6.13;1.85;;;8.70;99.90;;;;;;5004064;28;20030;-80
2024/03/27 02:36:47;;;;;;;8.23;2.05;;;8.70;99.90;;;;;;4984527;28;20554;-80
2024/03/27 02:39:12;;;;;;;4.53;2.75;;;8.70;99.90;;;;;;4994655;28;20030;-80
2024/03/27 02:41:38;;;;;;;4.60;2.17;;;8.70;99.90;;;;;;4996782;28;20053;-80
2024/03/27 02:44:04;;;;;;;6.55;2.20;;;8.60;99.90;;;;;;4999254;28;20046;-79
2024/03/27 02:46:30;;;;;;;5.85;2.72;;;8.60;99.90;;;;;;5007801;28;20061;-80
2024/03/27 02:48:55;;;;;;;4.15;1.88;;;8.60;99.90;;;;;;4999466;28;20205;-79
2024/03/27 02:51:21;;;;;;;3.72;1.90;;;8.60;99.90;;;;;;4998175;28;20018;-79
2024/03/27 02:53:47;;;;;;;5.15;2.47;;;8.60;99.90;;;;;;4973503;28;20057;-80
2024/03/27 02:56:13;;;;;;;5.93;2.17;;;8.60;99.90;;;;;;5006147;28;20026;-80
2024/03/27 02:58:39;;;;;;;4.93;2.53;;;8.60;99.90;;;;;;4994749;28;20364;-79
2024/03/27 03:01:05;;;;;;;5.80;2.38;;;8.50;99.90;;;;;;4998394;28;20113;-79
2024/03/27 03:03:31;;;;;;;7.57;2.50;;;8.40;99.90;;;;;;4988000;28;20033;-79
2024/03/27 03:05:56;;;;;;;4.13;1.70;;;8.40;99.90;;;;;;5017774;28;20057;-80
2024/03/27 03:08:22;;;;;;;5.15;2.25;;;8.40;99.90;;;;;;5019036;28;20064;-80
2024/03/27 03:10:52;;;;;;;3.45;2.03;;;8.50;99.90;;;;;;5003578;28;20064;-81
2024/03/27 03:13:19;;;;;;;6.47;2.90;;;8.50;99.90;;;;;;5001286;28;20571;-80
2024/03/27 03:15:45;;;;;;;8.45;2.20;;;8.40;99.90;;;;;;4998266;28;20030;-81
2024/03/27 03:18:11;;;;;;;5.60;2.33;;;8.30;99.90;;;;;;5008110;28;20041;-81
2024/03/27 03:20:36;;;;;;;3.08;2.13;;;8.20;99.90;;;;;;5007374;28;20578;-79
2024/03/27 03:23:02;;;;;;;3.58;1.73;;;8.20;99.90;;;;;;4989527;28;20057;-80
2024/03/27 03:25:28;;;;;;;4.93;1.90;;;8.20;99.90;;;;;;5020354;28;20484;-80
2024/03/27 03:27:54;;;;;;;7.65;2.33;;;8.10;99.90;;;;;;5012299;28;20034;-79
2024/03/27 03:30:20;;;;;;;4.20;2.03;;;8.10;99.90;;;;;;5015641;28;20033;-80
2024/03/27 03:32:45;;;;;;;5.53;2.40;;;8.10;99.90;;;;;;5012045;28;20065;-79
2024/03/27 03:35:11;;;;;;;3.90;2.38;;;8.00;99.90;;;;;;5011082;28;20186;-79
2024/03/27 03:37:37;;;;;;;6.32;3.25;;;7.90;99.90;;;;;;5018996;28;20030;-79
2024/03/27 03:40:04;;;;;;;5.15;2.67;;;7.90;99.90;;;;;;5013634;28;20042;-79
2024/03/27 03:42:30;;;;;;;4.03;1.95;;;7.90;99.90;;;;;;5008654;28;20044;-79
2024/03/27 03:44:56;;;;;;;5.50;2.45;;;7.90;99.90;;;;;;5014126;28;20030;-80
2024/03/27 03:47:21;;;;;;;5.13;2.30;;;7.90;99.90;;;;;;5030040;28;20061;-80
2024/03/27 03:49:47;;;;;;;5.32;2.35;;;7.80;99.90;;;;;;4998372;28;20034;-80
2024/03/27 03:52:13;;;;;;;7.68;2.35;;;7.80;99.90;;;;;;5019530;28;20038;-80
2024/03/27 03:54:39;;;;;;;3.95;2.60;;;7.80;99.90;;;;;;5004003;22;20042;-66
2024/03/27 03:57:04;;;;;;;4.80;2.35;;;7.70;99.90;;;;;;4992221;28;20615;-66
2024/03/27 03:59:30;;;;;;;3.95;2.58;;;7.70;99.90;;;;;;4994415;28;20030;-66
2024/03/27 04:01:56;;;;;;;5.05;2.75;;;7.80;99.90;;;;;;4992392;28;20036;-66
2024/03/27 04:04:22;;;;;;;4.55;1.85;;;7.80;99.90;;;;;;5007197;28;20069;-66
2024/03/27 04:06:47;;;;;;;4.18;2.20;;;7.80;99.90;;;;;;4991787;28;20069;-67
2024/03/27 04:09:13;;;;;;;9.30;2.15;;;7.80;99.90;;;;;;4995528;28;20128;-67
2024/03/27 04:11:39;;;;;;;5.03;2.50;;;7.70;99.90;;;;;;4996262;28;20121;-66
2024/03/27 04:14:04;;;;;;;7.65;2.35;;;7.60;99.90;;;;;;4993898;28;20035;-66
2024/03/27 04:16:30;;;;;;;3.58;2.13;;;7.50;99.90;;;;;;4992066;28;20034;-66
2024/03/27 04:18:57;;;;;;;4.05;2.17;;;7.40;99.90;;;;;;5009089;28;20031;-66
2024/03/27 04:21:24;;;;;;;3.28;2.50;;;7.30;99.90;;;;;;4991903;28;20030;-66
2024/03/27 04:23:49;;;;;;;5.07;2.35;;;7.30;99.90;;;;;;5008682;28;20038;-66
2024/03/27 04:26:18;;;;;;;2.85;1.80;;;7.30;99.90;;;;;;4991372;28;20034;-66
2024/03/27 04:28:44;;;;;;;2.70;2.08;;;7.30;99.90;;;;;;4993545;28;20066;-66
2024/03/27 04:31:10;;;;;;;5.45;2.97;;;7.30;99.90;;;;;;4992695;28;20068;-67
2024/03/27 04:33:35;;;;;;;6.55;2.20;;;7.20;99.90;;;;;;4998066;28;20026;-66
2024/03/27 04:36:02;;;;;;;3.88;2.00;;;7.10;99.90;;;;;;4995094;28;20034;-66
2024/03/27 04:38:27;;;;;;;4.80;2.15;;;7.10;99.90;;;;;;4993638;28;20030;-66
2024/03/27 04:40:53;;;;;;;5.03;2.20;;;7.10;99.90;;;;;;5008222;28;20042;-66
2024/03/27 04:43:19;;;;;;;10.60;2.28;;;7.20;99.90;;;;;;4993391;28;20026;-66
2024/03/27 04:45:45;;;;;;;3.88;2.40;;;7.30;99.90;;;;;;4991132;28;20056;-66
2024/03/27 04:48:11;;;;;;;28.17;2.83;;;7.30;99.90;;;;;;5008009;28;20392;-66
2024/03/27 04:50:37;;;;;;;3.33;1.80;;;7.30;99.90;;;;;;4997074;28;20041;-66
2024/03/27 04:53:02;;;;;;;4.53;2.35;;;7.40;99.90;;;;;;4995945;28;20038;-66
2024/03/27 04:55:28;;;;;;;17.05;2.97;;;7.40;99.90;;;;;;4990625;28;20033;-66
2024/03/27 04:57:54;;;;;;;3.65;2.28;;;7.50;99.90;;;;;;5007496;28;20030;-66
2024/03/27 05:00:20;;;;;;;6.00;2.80;;;7.60;99.90;;;;;;4990999;28;20031;-67
2024/03/27 05:02:46;;;;;;;5.47;2.45;;;7.60;99.90;;;;;;5007489;28;20030;-66
2024/03/27 05:05:11;;;;;;;6.70;2.60;;;7.60;99.90;;;;;;4998719;28;20045;-67
2024/03/27 05:07:38;;;;;;;4.13;2.35;;;7.60;99.90;;;;;;4993206;28;20042;-66
2024/03/27 05:10:05;;;;;;;7.13;2.60;;;7.70;99.90;;;;;;4991146;28;20030;-67
2024/03/27 05:12:31;;;;;;;6.88;2.42;;;7.70;99.90;;;;;;5008035;28;20033;-67
2024/03/27 05:14:57;;;;;;;3.67;2.13;;;7.70;99.90;;;;;;4991336;28;20039;-67
2024/03/27 05:17:23;;;;;;;6.45;3.17;;;7.70;99.90;;;;;;4991897;28;20026;-67
2024/03/27 05:19:49;;;;;;;5.13;1.90;;;7.70;99.90;;;;;;4997654;28;20026;-67
2024/03/27 05:22:16;;;;;;;8.15;2.90;;;7.80;99.90;;;;;;5006228;28;20080;-67
2024/03/27 05:24:45;;;;;;;6.55;3.00;;;7.80;99.90;;;;;;5006889;28;20049;-67
2024/03/27 05:27:11;;;;;;;6.00;2.50;;;7.80;99.90;;;;;;5003223;28;20439;-67
2024/03/27 05:29:37;;;;;;;9.60;2.75;;;7.80;99.90;;;;;;5007339;28;20026;-67
2024/03/27 05:32:04;;;;;;;4.25;2.17;;;7.80;99.90;;;;;;5005784;28;20030;-67
2024/03/27 05:34:30;;;;;;;9.15;2.65;;;7.90;99.90;;;;;;4997774;28;20041;-67
2024/03/27 05:36:55;;;;;;;6.57;2.65;;;7.90;99.90;;;;;;5006978;28;20045;-66
2024/03/27 05:39:22;;;;;;;4.32;1.77;;;7.90;99.90;;;;;;5007612;28;20442;-67
2024/03/27 05:41:47;;;;;;;5.72;3.10;;;7.90;99.90;;;;;;4991289;28;20038;-67
2024/03/27 05:44:13;;;;;;;18.73;4.25;;;7.90;99.90;;;;;;4992094;28;20038;-66
2024/03/27 05:46:41;;;;;;;7.53;2.63;;;7.90;99.90;;;;;;5005339;28;20113;-68
2024/03/27 05:49:08;;;;;;;5.78;2.28;;;7.90;99.90;;;;;;4992970;28;20121;-66
2024/03/27 05:51:39;;;;;;;6.75;3.10;;;8.00;99.90;;;;;;4991214;28;20026;-68
2024/03/27 05:54:05;;;;;;;6.72;2.92;;;8.00;99.90;;;;;;5008923;28;20022;-67
2024/03/27 05:56:31;;;;;;;9.07;2.95;;;8.10;99.90;;;;;;5006640;28;20041;-67
2024/03/27 05:58:56;;;;;;;5.57;2.53;;;8.10;99.90;;;;;;4993433;28;20034;-66
2024/03/27 06:01:22;;;;;;;3.60;2.40;;;8.10;99.90;;;;;;4997830;28;20081;-67
2024/03/27 06:03:55;;;;;;;6.30;2.63;;;8.00;99.90;;;;;;4997311;28;20470;-67
2024/03/27 06:06:21;;;;;;;11.75;2.92;;;8.00;99.90;;;;;;4999999;28;20087;-67
2024/03/27 06:08:51;;;;;;;4.95;2.78;;;8.10;99.90;;;;;;4993236;28;20034;-68
2024/03/27 06:11:17;;;;;;;6.38;3.33;;;8.10;99.90;;;;;;5006922;28;20034;-67
2024/03/27 06:13:43;;;;;;;6.72;3.47;;;8.20;99.90;;;;;;4999060;28;20021;-68
2024/03/27 06:16:09;;;;;;;5.07;2.63;;;8.20;99.90;;;;;;4994606;28;20030;-67
2024/03/27 06:18:35;;;;;;;7.93;3.50;;;8.30;99.90;;;;;;4993299;28;20026;-67
2024/03/27 06:21:01;;;;;;;5.57;2.50;;;8.30;99.90;;;;;;5006243;28;20121;-67
2024/03/27 06:23:27;;;;;;;10.50;2.63;;;8.30;99.90;;;;;;4993776;28;20406;-67
2024/03/27 06:26:00;;;;;;;4.97;2.55;;;8.40;99.90;;;;;;4990707;28;20081;-67
2024/03/27 06:28:29;;;;;;;5.75;2.88;;;8.40;99.90;;;;;;4993188;28;20031;-67
2024/03/27 06:30:58;;;;;;;4.20;2.47;;;8.40;99.90;;;;;;5006060;28;20396;-67
2024/03/27 06:33:25;;;;;;;6.78;3.30;;;8.50;99.90;;;;;;4992944;28;20054;-69
2024/03/27 06:35:51;;;;;;;7.38;2.63;;;8.50;99.90;;;;;;4994608;28;20734;-67
2024/03/27 06:38:24;;;;;;;9.20;2.63;;;8.70;99.90;;;;;;4991880;28;20042;-67
2024/03/27 06:40:50;;;;;;;5.63;3.35;;;8.70;99.90;;;;;;5003468;28;20046;-67
2024/03/27 06:43:16;;;;;;;4.82;2.63;;;8.70;99.90;;;;;;5006447;28;20479;-67
2024/03/27 06:45:46;;;;;;;9.18;2.65;;;8.70;99.90;;;;;;4988840;28;20738;-67
2024/03/27 06:48:12;;;;;;;10.35;3.85;;;8.80;99.90;;;;;;4991726;28;20038;-67
2024/03/27 06:50:38;;;;;;;5.57;2.97;;;8.90;99.90;;;;;;4995432;28;20113;-68
2024/03/27 06:53:04;;;;;;;4.90;2.97;;;9.00;99.90;;;;;;4991551;28;20391;-67
2024/03/27 06:55:30;;;;;;;5.03;2.60;;;9.00;99.90;;;;;;5004660;28;20475;-66
2024/03/27 06:57:55;;;;;;;7.28;3.10;;;8.90;99.90;;;;;;4991312;28;20100;-67
2024/03/27 07:00:21;;;;;;;5.15;2.83;;;9.00;99.90;;;;;;5005440;28;20059;-67
2024/03/27 07:02:48;;;;;;;6.05;3.45;;;9.00;99.90;;;;;;4970785;28;20459;-67
2024/03/27 07:05:16;;;;;;;6.68;3.38;;;9.10;99.90;;;;;;4993977;28;20030;-68
2024/03/27 07:07:42;;;;;;;7.72;3.45;;;9.20;99.90;;;;;;4991150;28;20030;-67
2024/03/27 07:10:09;;;;;;;9.38;3.40;;;9.40;99.90;;;;;;4989008;28;20030;-66
2024/03/27 07:12:36;;;;;;;13.50;3.05;;;9.40;99.90;;;;;;4984420;28;20105;-67
2024/03/27 07:15:03;;;;;;;7.18;2.97;;;9.50;99.90;;;;;;5004535;28;20542;-67
2024/03/27 07:17:29;;;;;;;4.30;2.60;;;9.50;99.90;;;;;;4982748;28;20023;-67
2024/03/27 07:19:55;;;;;;;5.43;3.53;;;9.40;99.90;;;;;;5002307;28;20026;-67
2024/03/27 07:22:20;;;;;;;11.32;2.97;;;9.30;99.90;;;;;;4996983;28;20033;-67
2024/03/27 07:24:51;;;;;;;5.25;3.25;;;9.40;99.90;;;;;;5014113;28;20034;-67
2024/03/27 07:27:17;;;;;;;4.75;2.90;;;9.60;99.90;;;;;;4990878;28;20031;-67
2024/03/27 07:29:43;;;;;;;7.40;3.28;;;9.70;99.90;;;;;;4994662;28;20027;-66
2024/03/27 07:32:09;;;;;;;5.82;3.05;;;9.50;99.90;;;;;;4993437;28;20387;-67
2024/03/27 07:34:35;;;;;;;7.70;3.55;;;9.40;99.90;;;;;;5008472;28;20037;-67
2024/03/27 07:37:01;;;;;;;10.15;2.65;;;9.40;99.90;;;;;;4992409;28;20038;-67
2024/03/27 07:39:27;;;;;;;7.25;3.13;;;9.50;99.90;;;;;;4994659;28;20054;-67
2024/03/27 07:41:52;;;;;;;4.75;2.83;;;9.60;99.90;;;;;;4993111;28;20092;-67
2024/03/27 07:44:19;;;;;;;5.53;3.15;;;9.40;99.90;;;;;;4993288;28;20038;-71
2024/03/27 07:46:45;;;;;;;5.70;3.17;;;9.70;99.90;;;;;;4991939;28;20519;-67
2024/03/27 07:49:10;;;;;;;15.60;3.35;;;9.80;99.90;;;;;;4994604;28;20109;-67
2024/03/27 07:51:36;;;;;;;9.35;2.53;;;9.80;99.90;;;;;;4993668;28;20026;-67
2024/03/27 07:54:02;;;;;;;12.45;3.45;;;9.40;99.90;;;;;;4994422;28;20030;-67
2024/03/27 07:56:28;;;;;;;7.45;2.40;;;9.30;99.90;;;;;;4991580;28;20105;-67
2024/03/27 07:58:54;;;;;;;6.47;2.67;;;9.50;99.90;;;;;;5009696;28;20038;-67
2024/03/27 08:01:20;;;;;;;7.78;2.65;;;9.60;99.90;;;;;;4992098;28;20058;-67
2024/03/27 08:03:45;;;;;;;6.13;2.95;;;9.70;99.90;;;;;;4998658;28;20462;-67
2024/03/27 08:06:14;;;;;;;4.80;1.92;;;9.80;99.90;;;;;;4994820;28;20053;-66
2024/03/27 08:08:41;;;;;;;8.85;3.30;;;9.60;99.90;;;;;;5009281;28;20029;-67
2024/03/27 08:11:09;;;;;;;4.07;2.65;;;9.60;99.90;;;;;;4992041;28;20030;-67
2024/03/27 08:13:35;;;;;;;6.63;3.00;;;9.80;99.90;;;;;;4993946;28;20025;-66
2024/03/27 08:16:02;;;;;;;7.88;3.67;;;10.00;99.90;;;;;;5007638;28;20038;-66
2024/03/27 08:19:01;;;;;;;5.85;2.60;;;10.20;99.90;;;;;;4993997;28;20403;-67
2024/03/27 08:21:26;;;;;;;4.82;2.45;;;10.10;99.90;;;;;;5004755;28;20039;-67
2024/03/27 08:23:52;;;;;;;6.60;2.88;;;10.20;99.90;;;;;;4995243;28;20040;-67
2024/03/27 08:26:18;;;;;;;5.32;3.08;;;10.40;99.90;;;;;;4994238;28;20101;-67
2024/03/27 08:28:43;;;;;;;4.45;2.38;;;10.50;99.90;;;;;;4995462;28;20538;-67
2024/03/27 08:31:09;;;;;;;6.45;2.83;;;10.60;99.90;;;;;;4993062;28;20533;-67
2024/03/27 08:33:35;;;;;;;3.92;2.47;;;10.70;99.90;;;;;;4997782;28;20033;-67
2024/03/27 08:36:04;;;;;;;4.40;2.72;;;10.90;99.90;;;;;;4995617;28;20482;-66
2024/03/27 08:38:30;;;;;;;6.85;2.63;;;11.00;99.90;;;;;;4993800;28;20045;-67
2024/03/27 08:40:57;;;;;;;8.73;3.95;;;11.00;99.90;;;;;;4991769;28;20034;-67
2024/03/27 08:43:23;;;;;;;5.55;2.65;;;11.20;99.90;;;;;;4993599;28;20486;-66
2024/03/27 08:45:48;;;;;;;6.45;3.47;;;11.20;99.90;;;;;;4990899;28;20109;-66
2024/03/27 08:48:14;;;;;;;11.00;3.30;;;11.40;99.90;;;;;;4993385;28;20046;-66
2024/03/27 08:50:40;;;;;;;5.18;3.00;;;11.50;99.90;;;;;;4992760;28;20452;-66
2024/03/27 08:53:06;;;;;;;7.72;3.65;;;11.70;99.90;;;;;;5008082;28;20041;-66
2024/03/27 08:55:41;;;;;;;8.68;4.05;;;11.70;99.90;;;;;;4990263;28;20157;-66
2024/03/27 08:58:07;;;;;;;5.13;2.75;;;11.80;99.90;;;;;;4989168;28;20134;-66
2024/03/27 09:00:34;;;;;;;8.27;3.25;;;11.80;99.90;;;;;;4992735;28;20030;-66
2024/03/27 09:03:01;;;;;;;7.78;3.60;;;11.90;99.90;;;;;;4992016;28;20502;-66
2024/03/27 09:05:27;;;;;;;6.75;3.40;;;11.70;99.90;;;;;;4996466;28;20443;-66
2024/03/27 09:07:53;;;;;;;8.45;3.03;;;11.80;99.90;;;;;;4993329;28;20041;-66
2024/03/27 09:10:19;;;;;;;6.28;2.95;;;11.90;99.90;;;;;;4992336;28;20491;-66
2024/03/27 09:12:44;;;;;;;12.10;3.45;;;12.00;99.90;;;;;;4992846;28;20030;-66
2024/03/27 09:15:10;;;;;;;7.75;3.05;;;12.10;99.90;;;;;;4989901;28;20026;-66
2024/03/27 09:17:36;;;;;;;6.63;2.85;;;12.40;99.90;;;;;;4988684;28;20399;-66
2024/03/27 09:20:03;;;;;;;3.70;2.45;;;12.60;99.90;;;;;;4987215;28;20034;-66
2024/03/27 09:22:33;;;;;;;6.82;3.47;;;12.80;99.90;;;;;;5007672;28;20430;-66
2024/03/27 09:24:58;;;;;;;7.05;2.20;;;12.80;99.90;;;;;;4991768;28;20061;-66
2024/03/27 09:27:25;;;;;;;9.25;2.70;;;12.90;99.90;;;;;;4974569;28;20077;-66
2024/03/27 09:29:53;;;;;;;4.57;2.22;;;12.80;99.90;;;;;;4991881;28;20137;-66
2024/03/27 09:32:23;;;;;;;9.85;2.70;;;12.90;99.90;;;;;;4991219;28;20402;-66
2024/03/27 09:34:49;;;;;;;3.78;2.08;;;13.00;99.90;;;;;;4996985;28;20026;-67
2024/03/27 09:37:15;;;;;;;5.90;3.00;;;13.10;99.90;;;;;;4991320;28;20049;-67
2024/03/27 09:39:41;;;;;;;3.97;2.00;;;13.30;99.90;;;;;;4992709;28;20026;-67
2024/03/27 09:42:07;;;;;;;8.82;2.55;;;13.40;99.90;;;;;;4991154;28;20034;-66
2024/03/27 09:44:33;;;;;;;9.50;3.30;;;13.50;99.90;;;;;;5007582;28;20037;-66
2024/03/27 09:47:00;;;;;;;5.60;2.70;;;13.50;99.90;;;;;;4989908;28;20118;-66
2024/03/27 09:49:29;;;;;;;10.20;4.28;;;13.50;99.90;;;;;;5007352;28;20085;-67
2024/03/27 09:51:58;;;;;;;7.10;3.50;;;13.60;99.90;;;;;;5005089;28;20105;-67
2024/03/27 09:54:28;;;;;;;6.97;3.63;;;13.50;99.90;;;;;;5007024;28;20117;-67
2024/03/27 09:56:58;;;;;;;9.90;3.92;;;13.80;99.90;;;;;;4991330;28;20041;-67
2024/03/27 09:59:24;;;;;;;12.50;3.30;;;14.00;99.90;;;;;;5007305;28;20030;-67
2024/03/27 10:02:00;;;;;;;10.27;3.83;;;14.10;99.90;;;;;;5004589;28;20042;-67
2024/03/27 10:04:26;;;;;;;6.30;3.00;;;14.40;99.90;;;;;;4990181;28;20040;-67
2024/03/27 10:06:53;;;;;;;6.00;3.60;;;14.60;99.90;;;;;;4982312;28;20042;-67
2024/03/27 10:09:19;;;;;;;11.65;4.35;;;14.70;99.90;;;;;;5000870;28;20085;-67
2024/03/27 10:11:45;;;;;;;6.28;3.53;;;14.80;99.90;;;;;;4992463;28;20045;-67
2024/03/27 10:14:11;;;;;;;7.03;3.58;;;14.80;99.90;;;;;;4987735;28;20026;-67
2024/03/27 10:16:37;;;;;;;9.52;3.38;;;14.80;99.90;;;;;;4991773;28;20038;-67
2024/03/27 10:19:03;;;;;;;6.55;3.28;;;14.40;99.90;;;;;;4987820;28;20042;-67
2024/03/27 10:21:29;;;;;;;8.15;3.20;;;14.40;99.90;;;;;;4992183;28;20504;-67
2024/03/27 10:23:55;;;;;;;6.20;3.05;;;14.60;99.90;;;;;;4988968;28;20049;-67
2024/03/27 10:26:21;;;;;;;4.00;2.90;;;14.30;99.90;;;;;;4990980;28;20031;-67
2024/03/27 10:28:46;;;;;;;5.10;2.38;;;14.20;99.90;;;;;;4988276;28;20076;-67
2024/03/27 10:31:12;;;;;;;6.03;2.88;;;14.40;99.90;;;;;;4991711;28;20069;-67
2024/03/27 10:33:38;;;;;;;3.90;2.15;;;14.10;99.90;;;;;;4990804;28;20029;-66
2024/03/27 10:36:05;;;;;;;8.02;2.85;;;14.00;99.90;;;;;;4994863;28;20042;-67
2024/03/27 10:38:32;;;;;;;5.00;2.92;;;14.20;99.90;;;;;;4979007;28;20411;-66
2024/03/27 10:41:03;;;;;;;5.22;3.05;;;14.10;99.90;;;;;;5002564;28;20042;-67
2024/03/27 10:43:50;;;;;;;3.83;1.85;;;14.10;99.90;;;;;;5002103;28;20026;-67
2024/03/27 10:46:16;;;;;;;15.07;2.17;;;14.40;99.90;;;;;;4989370;28;20030;-66
2024/03/27 10:48:42;;;;;;;7.70;2.25;;;13.80;99.90;;;;;;5005063;28;20403;-67
2024/03/27 10:51:10;;;;;;;5.28;1.50;;;13.80;99.90;;;;;;5006014;28;20077;-66
2024/03/27 10:53:37;;;;;;;3.20;1.77;;;14.00;99.90;;;;;;4990110;28;20083;-67
2024/03/27 10:56:03;;;;;;;5.60;2.10;;;14.30;99.90;;;;;;5008151;28;20031;-66
2024/03/27 10:58:30;;;;;;;3.83;1.92;;;14.20;99.90;;;;;;4993796;28;20507;-67
2024/03/27 11:00:56;;;;;;;4.10;1.65;;;14.30;99.90;;;;;;5009365;28;20030;-66
2024/03/27 11:03:27;;;;;;;7.32;1.80;;;14.10;99.90;;;;;;5008912;28;20030;-66
2024/03/27 11:05:53;;;;;;;4.88;2.97;;;14.00;99.90;;;;;;5009663;28;20491;-66
2024/03/27 11:08:20;;;;;;;3.92;1.10;;;13.90;99.90;;;;;;4990873;28;20101;-66
2024/03/27 11:10:46;;;;;;;3.05;1.42;;;13.90;99.90;;;;;;4993803;28;20038;-66
2024/03/27 11:13:12;;;;;;;1.90;1.00;;;13.80;99.90;;;;;;4990569;28;20397;-66
2024/03/27 11:15:41;;;;;;;1.67;0.95;;;13.80;99.90;;;;;;4994664;28;20494;-67
2024/03/27 11:18:18;;;;;;;2.58;1.08;;;13.70;99.90;;;;;;4990286;28;20031;-67
2024/03/27 11:20:55;;;;;;;2.08;0.80;;;13.50;99.90;;;;;;4989880;28;20387;-67
2024/03/27 11:23:38;;;;;;;2.03;0.90;;;13.40;99.90;;;;;;4989670;28;20031;-67
2024/03/27 11:26:04;;;;;;;1.52;0.60;;;13.40;99.90;;;;;;4993284;28;20041;-66
2024/03/27 11:28:31;;;;;;;2.80;1.30;;;13.40;99.90;;;;;;4990043;28;20553;-66
2024/03/27 11:30:58;;;;;;;3.03;0.75;;;13.30;99.90;;;;;;4994059;28;20096;-66
2024/03/27 11:33:25;;;;;;;1.83;0.90;;;13.20;99.90;;;;;;4991403;28;20030;-66
2024/03/27 11:35:52;;;;;;;1.55;0.47;;;13.00;99.90;;;;;;4994504;28;20031;-66
2024/03/27 11:38:22;;;;;;;1.58;0.70;;;13.20;99.90;;;;;;4993059;28;20061;-66
2024/03/27 11:40:52;;;;;;;1.33;0.57;;;13.20;99.90;;;;;;4994478;28;20034;-66
2024/03/27 11:43:19;;;;;;;0.63;0.38;;;13.00;99.90;;;;;;4990054;28;20038;-66
2024/03/27 11:45:49;;;;;;;1.55;0.38;;;13.00;99.90;;;;;;4994051;28;20027;-66
2024/03/27 11:48:16;;;;;;;3.38;0.63;;;12.90;99.90;;;;;;5004558;28;20031;-66
2024/03/27 11:50:42;;;;;;;1.00;0.40;;;12.90;99.90;;;;;;4994691;28;20389;-66
2024/03/27 11:53:11;;;;;;;0.28;0.20;;;12.90;99.90;;;;;;4992181;28;20038;-66
2024/03/27 11:55:37;;;;;;;1.08;0.65;;;13.00;99.90;;;;;;5008473;28;20061;-68
2024/03/27 11:58:04;;;;;;;0.70;0.60;;;13.00;99.90;;;;;;4990272;28;20483;-66
2024/03/27 12:00:30;;;;;;;0.68;0.52;;;13.00;99.90;;;;;;4994037;28;20105;-66
2024/03/27 12:03:02;;;;;;;0.98;0.63;;;13.00;99.90;;;;;;4992108;28;20081;-66
2024/03/27 12:05:28;;;;;;;2.40;0.73;;;13.10;99.90;;;;;;5015584;28;20035;-66
2024/03/27 12:07:55;;;;;;;0.63;0.40;;;13.10;99.90;;;;;;4990540;28;20045;-67
2024/03/27 12:10:21;;;;;;;1.52;0.52;;;13.00;99.90;;;;;;4993211;28;20622;-66
2024/03/27 12:12:49;;;;;;;1.35;0.47;;;13.10;99.90;;;;;;4993115;28;20042;-66
2024/03/27 12:15:17;;;;;;;0.50;0.40;;;13.10;99.90;;;;;;4993820;28;20076;-67
2024/03/27 12:17:43;;;;;;;1.05;0.80;;;13.00;99.90;;;;;;5007516;28;20509;-67
2024/03/27 12:20:12;;;;;;;1.08;0.55;;;12.80;99.90;;;;;;5008933;28;20109;-68
2024/03/27 12:22:38;;;;;;;1.13;0.50;;;12.90;99.90;;;;;;4993141;28;20128;-67
2024/03/27 12:25:05;;;;;;;0.82;0.50;;;13.00;99.90;;;;;;4992638;28;20085;-67
2024/03/27 12:27:33;;;;;;;1.02;0.80;;;13.20;99.90;;;;;;4993067;28;20026;-67
2024/03/27 12:30:00;;;;;;;1.13;0.77;;;13.10;99.90;;;;;;5005939;28;20057;-67
2024/03/27 12:32:27;;;;;;;2.25;1.30;;;13.20;99.90;;;;;;4994389;28;20023;-67
2024/03/27 12:34:53;;;;;;;1.73;0.52;;;13.20;99.90;;;;;;4997346;28;20057;-68
2024/03/27 12:37:19;;;;;;;1.00;0.60;;;13.10;99.90;;;;;;4993816;28;20030;-67
2024/03/27 12:39:45;;;;;;;0.68;0.40;;;13.20;99.90;;;;;;5004411;28;20042;-67
2024/03/27 12:42:11;;;;;;;4.03;0.90;;;13.20;99.90;;;;;;4993626;28;20482;-67
2024/03/27 12:44:37;;;;;;;1.38;0.60;;;13.10;99.90;;;;;;5004506;28;20057;-68
2024/03/27 12:47:03;;;;;;;3.72;0.63;;;13.00;99.90;;;;;;4993246;28;20062;-68